PWSweather.com
Personal Weather Stations
Station Observations
IHTIMAN1
Neighbourhood 1, IhtimanBG 2050

Neighbourhood 1IhtimanBG 2050

Lat: 42.436852, Lon: 23.817921

Elevation: 2066

Station Type: Oregon Scientific WMR968

http://ihtiman-meteo.com

High Low Average
Temperature 75.1°F23.9°C 34.5°F1.4°C 52.8°F11.6°C
Dew Point 44.6°F7.0°C 31.6°F-0.2°C 37.8°F3.2°C
Winds 5.8 mph 9.3 kmh Calm Calm 1.0 mph S1.6 kmh S
Wind Gusts 9.2 mph14.8 kmh -- 2.0 mph3.2 kmh
Humidity 94% 31% 62%
Pressure 30.24 in1024.0 mb 30.06 in1017.9 mb -
Precipitation 0.00 in0.0 mm - -
Hour Temp Dew Point Humidity Winds Wind Gusts Pressure Precip Precip Rate Daily Precip Total
12:00 AM 41.0°F5.0°C 33.0°F0.6°C 73% Calm Calm -- 30.24 in1024.0 mb - 0.00 in0.0 mm 0.00 in0.0 mm
12:10 AM 40.6°F4.8°C 33.0°F0.6°C 74% Calm Calm -- 30.24 in1024.0 mb - 0.00 in0.0 mm 0.00 in0.0 mm
12:20 AM 40.8°F4.9°C 33.5°F0.8°C 75% Calm Calm -- 30.21 in1023.0 mb - 0.00 in0.0 mm 0.00 in0.0 mm
12:30 AM 40.8°F4.9°C 33.8°F1.0°C 76% Calm Calm -- 30.21 in1023.0 mb - 0.00 in0.0 mm 0.00 in0.0 mm
12:40 AM 40.6°F4.8°C 33.7°F0.9°C 76% Calm Calm -- 30.21 in1023.0 mb - 0.00 in0.0 mm 0.00 in0.0 mm
12:50 AM 40.6°F4.8°C 33.7°F0.9°C 76% Calm Calm -- 30.24 in1024.0 mb - 0.00 in0.0 mm 0.00 in0.0 mm
01:00 AM 40.3°F4.6°C 33.6°F0.9°C 77% Calm Calm -- 30.24 in1024.0 mb - 0.00 in0.0 mm 0.00 in0.0 mm
01:10 AM 39.9°F4.4°C 33.3°F0.7°C 77% Calm Calm -- 30.24 in1024.0 mb - 0.00 in0.0 mm 0.00 in0.0 mm
01:20 AM 39.4°F4.1°C 32.8°F0.4°C 77% Calm Calm -- 30.24 in1024.0 mb - 0.00 in0.0 mm 0.00 in0.0 mm
01:30 AM 38.8°F3.8°C 32.6°F0.3°C 78% Calm Calm -- 30.24 in1024.0 mb - 0.00 in0.0 mm 0.00 in0.0 mm
01:40 AM 38.7°F3.7°C 32.4°F0.2°C 78% Calm Calm -- 30.24 in1024.0 mb - 0.00 in0.0 mm 0.00 in0.0 mm
01:50 AM 38.5°F3.6°C 32.5°F0.3°C 79% Calm Calm -- 30.21 in1023.0 mb - 0.00 in0.0 mm 0.00 in0.0 mm
02:00 AM 38.5°F3.6°C 32.5°F0.3°C 79% Calm Calm -- 30.21 in1023.0 mb - 0.00 in0.0 mm 0.00 in0.0 mm
02:10 AM 38.5°F3.6°C 32.8°F0.4°C 80% Calm Calm -- 30.21 in1023.0 mb - 0.00 in0.0 mm 0.00 in0.0 mm
02:20 AM 38.3°F3.5°C 33.0°F0.6°C 81% Calm Calm -- 30.24 in1024.0 mb - 0.00 in0.0 mm 0.00 in0.0 mm
02:30 AM 37.9°F3.3°C 32.9°F0.5°C 82% Calm Calm -- 30.21 in1023.0 mb - 0.00 in0.0 mm 0.00 in0.0 mm
02:40 AM 37.7°F3.2°C 32.7°F0.4°C 82% Calm Calm -- 30.21 in1023.0 mb - 0.00 in0.0 mm 0.00 in0.0 mm
02:50 AM 37.6°F3.1°C 32.9°F0.5°C 83% Calm Calm -- 30.21 in1023.0 mb - 0.00 in0.0 mm 0.00 in0.0 mm
03:00 AM 37.6°F3.1°C 33.2°F0.7°C 84% Calm Calm -- 30.24 in1024.0 mb - 0.00 in0.0 mm 0.00 in0.0 mm
03:10 AM 37.4°F3.0°C 33.0°F0.6°C 84% Calm Calm -- 30.24 in1024.0 mb - 0.00 in0.0 mm 0.00 in0.0 mm
03:20 AM 37.1°F2.8°C 33.0°F0.6°C 85% 2.3 mph SSE3.7 kmh SSE 3.5 mph5.6 kmh 30.24 in1024.0 mb - 0.00 in0.0 mm 0.00 in0.0 mm
03:30 AM 36.9°F2.7°C 33.1°F0.6°C 86% Calm Calm -- 30.24 in1024.0 mb - 0.00 in0.0 mm 0.00 in0.0 mm
03:40 AM 36.7°F2.6°C 32.9°F0.5°C 86% Calm Calm -- 30.24 in1024.0 mb - 0.00 in0.0 mm 0.00 in0.0 mm
03:50 AM 36.3°F2.4°C 32.5°F0.3°C 86% Calm Calm -- 30.24 in1024.0 mb - 0.00 in0.0 mm 0.00 in0.0 mm
04:00 AM 35.9°F2.2°C 32.1°F0.1°C 86% Calm Calm -- 30.24 in1024.0 mb - 0.00 in0.0 mm 0.00 in0.0 mm
04:10 AM 35.8°F2.1°C 32.0°F0.0°C 86% Calm Calm -- 30.24 in1024.0 mb - 0.00 in0.0 mm 0.00 in0.0 mm
04:20 AM 35.6°F2.0°C 32.1°F0.1°C 87% Calm Calm -- 30.24 in1024.0 mb - 0.00 in0.0 mm 0.00 in0.0 mm
04:30 AM 35.8°F2.1°C 32.3°F0.2°C 87% Calm Calm -- 30.21 in1023.0 mb - 0.00 in0.0 mm 0.00 in0.0 mm
04:40 AM 35.6°F2.0°C 32.1°F0.1°C 87% Calm Calm -- 30.21 in1023.0 mb - 0.00 in0.0 mm 0.00 in0.0 mm
04:50 AM 35.6°F2.0°C 32.4°F0.2°C 88% Calm Calm -- 30.21 in1023.0 mb - 0.00 in0.0 mm 0.00 in0.0 mm
05:00 AM 35.8°F2.1°C 32.6°F0.3°C 88% Calm Calm -- 30.21 in1023.0 mb - 0.00 in0.0 mm 0.00 in0.0 mm
05:10 AM 35.8°F2.1°C 32.6°F0.3°C 88% Calm Calm -- 30.21 in1023.0 mb - 0.00 in0.0 mm 0.00 in0.0 mm
05:20 AM 35.8°F2.1°C 32.6°F0.3°C 88% Calm Calm -- 30.21 in1023.0 mb - 0.00 in0.0 mm 0.00 in0.0 mm
05:30 AM 35.4°F1.9°C 32.5°F0.3°C 89% Calm Calm -- 30.21 in1023.0 mb - 0.00 in0.0 mm 0.00 in0.0 mm
05:40 AM 34.9°F1.6°C 32.0°F0.0°C 89% Calm Calm -- 30.21 in1023.0 mb - 0.00 in0.0 mm 0.00 in0.0 mm
05:50 AM 34.7°F1.5°C 31.8°F-0.1°C 89% Calm Calm -- 30.21 in1023.0 mb - 0.00 in0.0 mm 0.00 in0.0 mm
06:00 AM 34.5°F1.4°C 31.6°F-0.2°C 89% Calm Calm -- 30.21 in1023.0 mb - 0.00 in0.0 mm 0.00 in0.0 mm
06:10 AM 34.5°F1.4°C 31.6°F-0.2°C 89% Calm Calm -- 30.21 in1023.0 mb - 0.00 in0.0 mm 0.00 in0.0 mm
06:20 AM 34.7°F1.5°C 31.8°F-0.1°C 89% Calm Calm -- 30.21 in1023.0 mb - 0.00 in0.0 mm 0.00 in0.0 mm
06:30 AM 34.9°F1.6°C 32.2°F0.1°C 90% Calm Calm -- 30.21 in1023.0 mb - 0.00 in0.0 mm 0.00 in0.0 mm
06:40 AM 35.0°F1.7°C 32.4°F0.2°C 90% Calm Calm -- 30.21 in1023.0 mb - 0.00 in0.0 mm 0.00 in0.0 mm
06:50 AM 35.2°F1.8°C 32.6°F0.3°C 90% Calm Calm -- 30.21 in1023.0 mb - 0.00 in0.0 mm 0.00 in0.0 mm
07:00 AM 35.4°F1.9°C 33.1°F0.6°C 91% Calm Calm 2.3 mph3.7 kmh 30.21 in1023.0 mb - 0.00 in0.0 mm 0.00 in0.0 mm
07:10 AM 35.8°F2.1°C 33.4°F0.8°C 91% Calm Calm -- 30.21 in1023.0 mb - 0.00 in0.0 mm 0.00 in0.0 mm
07:20 AM 35.9°F2.2°C 33.8°F1.0°C 92% Calm Calm -- 30.21 in1023.0 mb - 0.00 in0.0 mm 0.00 in0.0 mm
07:30 AM 36.3°F2.4°C 34.2°F1.2°C 92% Calm Calm -- 30.21 in1023.0 mb - 0.00 in0.0 mm 0.00 in0.0 mm
07:40 AM 37.0°F2.8°C 35.1°F1.7°C 93% Calm Calm -- 30.21 in1023.0 mb - 0.00 in0.0 mm 0.00 in0.0 mm
07:50 AM 37.5°F3.1°C 35.7°F2.1°C 93% Calm Calm -- 30.21 in1023.0 mb - 0.00 in0.0 mm 0.00 in0.0 mm
08:00 AM 38.5°F3.6°C 36.9°F2.7°C 94% Calm Calm -- 30.21 in1023.0 mb - 0.00 in0.0 mm 0.00 in0.0 mm
08:10 AM 40.0°F4.4°C 38.4°F3.6°C 94% Calm Calm -- 30.21 in1023.0 mb - 0.00 in0.0 mm 0.00 in0.0 mm
08:20 AM 41.9°F5.5°C 40.3°F4.6°C 94% Calm Calm -- 30.21 in1023.0 mb - 0.00 in0.0 mm 0.00 in0.0 mm
08:30 AM 43.6°F6.4°C 40.8°F4.9°C 90% Calm Calm -- 30.21 in1023.0 mb - 0.00 in0.0 mm 0.00 in0.0 mm
08:40 AM 45.0°F7.2°C 41.0°F5.0°C 86% Calm Calm -- 30.21 in1023.0 mb - 0.00 in0.0 mm 0.00 in0.0 mm
08:50 AM 46.4°F8.0°C 40.9°F4.9°C 81% Calm Calm -- 30.21 in1023.0 mb - 0.00 in0.0 mm 0.00 in0.0 mm
09:00 AM 48.1°F8.9°C 41.6°F5.3°C 78% 1.2 mph S1.9 kmh S 2.3 mph3.7 kmh 30.21 in1023.0 mb - 0.00 in0.0 mm 0.00 in0.0 mm
09:10 AM 49.4°F9.7°C 42.1°F5.6°C 76% 1.2 mph SSW1.9 kmh SSW 3.5 mph5.6 kmh 30.21 in1023.0 mb - 0.00 in0.0 mm 0.00 in0.0 mm
09:20 AM 50.8°F10.4°C 42.9°F6.1°C 74% 1.2 mph S1.9 kmh S 3.5 mph5.6 kmh 30.21 in1023.0 mb - 0.00 in0.0 mm 0.00 in0.0 mm
09:30 AM 52.4°F11.3°C 43.7°F6.5°C 72% 2.3 mph SSW3.7 kmh SSW 3.5 mph5.6 kmh 30.21 in1023.0 mb - 0.00 in0.0 mm 0.00 in0.0 mm
09:40 AM 54.6°F12.6°C 44.3°F6.8°C 68% 2.3 mph SSE3.7 kmh SSE 3.5 mph5.6 kmh 30.21 in1023.0 mb - 0.00 in0.0 mm 0.00 in0.0 mm
09:50 AM 56.3°F13.5°C 44.3°F6.8°C 64% 1.2 mph S1.9 kmh S 2.3 mph3.7 kmh 30.21 in1023.0 mb - 0.00 in0.0 mm 0.00 in0.0 mm
10:00 AM 58.0°F14.4°C 44.6°F7.0°C 61% 2.3 mph NNE3.7 kmh NNE 3.5 mph5.6 kmh 30.21 in1023.0 mb - 0.00 in0.0 mm 0.00 in0.0 mm
10:10 AM 59.2°F15.1°C 43.0°F6.1°C 55% 3.5 mph SSE5.6 kmh SSE 5.8 mph9.3 kmh 30.21 in1023.0 mb - 0.00 in0.0 mm 0.00 in0.0 mm
10:20 AM 60.4°F15.8°C 43.2°F6.2°C 53% 3.5 mph S5.6 kmh S 4.6 mph7.4 kmh 30.18 in1022.0 mb - 0.00 in0.0 mm 0.00 in0.0 mm
10:30 AM 60.5°F15.8°C 42.3°F5.7°C 51% Calm Calm 3.5 mph5.6 kmh 30.21 in1023.0 mb - 0.00 in0.0 mm 0.00 in0.0 mm
10:40 AM 62.1°F16.7°C 42.7°F5.9°C 49% 3.5 mph SSW5.6 kmh SSW 3.5 mph5.6 kmh 30.21 in1023.0 mb - 0.00 in0.0 mm 0.00 in0.0 mm
10:50 AM 64.0°F17.8°C 43.3°F6.3°C 47% 2.3 mph S3.7 kmh S 5.8 mph9.3 kmh 30.18 in1022.0 mb - 0.00 in0.0 mm 0.00 in0.0 mm
11:00 AM 64.0°F17.8°C 42.3°F5.7°C 45% 3.5 mph SSE5.6 kmh SSE 5.8 mph9.3 kmh 30.18 in1022.0 mb - 0.00 in0.0 mm 0.00 in0.0 mm
11:10 AM 64.8°F18.2°C 42.3°F5.7°C 44% 2.3 mph S3.7 kmh S 3.5 mph5.6 kmh 30.18 in1022.0 mb - 0.00 in0.0 mm 0.00 in0.0 mm
11:20 AM 65.2°F18.4°C 42.2°F5.7°C 43% 3.5 mph S5.6 kmh S 5.8 mph9.3 kmh 30.18 in1022.0 mb - 0.00 in0.0 mm 0.00 in0.0 mm
11:30 AM 65.8°F18.8°C 42.0°F5.6°C 42% 2.3 mph SE3.7 kmh SE 3.5 mph5.6 kmh 30.18 in1022.0 mb - 0.00 in0.0 mm 0.00 in0.0 mm
11:40 AM 66.1°F18.9°C 41.7°F5.4°C 41% Calm Calm 3.5 mph5.6 kmh 30.18 in1022.0 mb - 0.00 in0.0 mm 0.00 in0.0 mm
11:50 AM 67.0°F19.4°C 41.9°F5.5°C 40% 2.3 mph SE3.7 kmh SE 5.8 mph9.3 kmh 30.15 in1021.0 mb - 0.00 in0.0 mm 0.00 in0.0 mm
12:00 PM 67.5°F19.7°C 41.6°F5.3°C 39% Calm Calm 3.5 mph5.6 kmh 30.15 in1021.0 mb - 0.00 in0.0 mm 0.00 in0.0 mm
12:10 PM 69.0°F20.6°C 41.6°F5.3°C 37% Calm Calm 3.5 mph5.6 kmh 30.15 in1021.0 mb - 0.00 in0.0 mm 0.00 in0.0 mm
12:20 PM 70.3°F21.3°C 41.4°F5.2°C 35% Calm Calm 5.8 mph9.3 kmh 30.15 in1021.0 mb - 0.00 in0.0 mm 0.00 in0.0 mm
12:30 PM 69.8°F21.0°C 40.1°F4.5°C 34% Calm Calm 3.5 mph5.6 kmh 30.15 in1021.0 mb - 0.00 in0.0 mm 0.00 in0.0 mm
12:40 PM 70.5°F21.4°C 40.8°F4.9°C 34% Calm Calm 2.3 mph3.7 kmh 30.15 in1021.0 mb - 0.00 in0.0 mm 0.00 in0.0 mm
12:50 PM 71.9°F22.2°C 41.2°F5.1°C 33% Calm Calm -- 30.12 in1020.0 mb - 0.00 in0.0 mm 0.00 in0.0 mm
01:00 PM 72.1°F22.3°C 41.4°F5.2°C 33% Calm Calm 2.3 mph3.7 kmh 30.12 in1020.0 mb - 0.00 in0.0 mm 0.00 in0.0 mm
01:10 PM 71.8°F22.1°C 40.4°F4.7°C 32% 2.3 mph S3.7 kmh S 2.3 mph3.7 kmh 30.12 in1020.0 mb - 0.00 in0.0 mm 0.00 in0.0 mm
01:20 PM 72.9°F22.7°C 41.3°F5.2°C 32% 3.5 mph S5.6 kmh S 4.6 mph7.4 kmh 30.12 in1020.0 mb - 0.00 in0.0 mm 0.00 in0.0 mm
01:30 PM 72.5°F22.5°C 40.9°F4.9°C 32% 3.5 mph S5.6 kmh S 3.5 mph5.6 kmh 30.12 in1020.0 mb - 0.00 in0.0 mm 0.00 in0.0 mm
01:40 PM 74.1°F23.4°C 41.5°F5.3°C 31% 3.5 mph NNW5.6 kmh NNW 5.8 mph9.3 kmh 30.12 in1020.0 mb - 0.00 in0.0 mm 0.00 in0.0 mm
01:50 PM 75.1°F23.9°C 42.4°F5.8°C 31% Calm Calm 3.5 mph5.6 kmh 30.12 in1020.0 mb - 0.00 in0.0 mm 0.00 in0.0 mm
02:00 PM 74.2°F23.4°C 41.6°F5.3°C 31% 3.5 mph SE5.6 kmh SE 5.8 mph9.3 kmh 30.12 in1020.0 mb - 0.00 in0.0 mm 0.00 in0.0 mm
02:10 PM 74.3°F23.5°C 41.7°F5.4°C 31% 2.3 mph SSE3.7 kmh SSE 2.3 mph3.7 kmh 30.12 in1020.0 mb - 0.00 in0.0 mm 0.00 in0.0 mm
02:20 PM 74.3°F23.5°C 41.7°F5.4°C 31% 4.6 mph SE7.4 kmh SE 5.8 mph9.3 kmh 30.12 in1020.0 mb - 0.00 in0.0 mm 0.00 in0.0 mm
02:30 PM 74.9°F23.8°C 42.2°F5.7°C 31% 4.6 mph SSE7.4 kmh SSE 8.1 mph13.0 kmh 30.09 in1019.0 mb - 0.00 in0.0 mm 0.00 in0.0 mm
02:40 PM 74.4°F23.6°C 41.8°F5.4°C 31% 3.5 mph SSE5.6 kmh SSE 3.5 mph5.6 kmh 30.09 in1019.0 mb - 0.00 in0.0 mm 0.00 in0.0 mm
02:50 PM 73.6°F23.1°C 41.1°F5.1°C 31% 2.3 mph SE3.7 kmh SE 5.8 mph9.3 kmh 30.09 in1019.0 mb - 0.00 in0.0 mm 0.00 in0.0 mm
03:00 PM 73.7°F23.2°C 41.2°F5.1°C 31% 2.3 mph S3.7 kmh S 3.5 mph5.6 kmh 30.06 in1017.9 mb - 0.00 in0.0 mm 0.00 in0.0 mm
03:10 PM 73.6°F23.1°C 42.0°F5.6°C 32% 3.5 mph SE5.6 kmh SE 8.1 mph13.0 kmh 30.06 in1017.9 mb - 0.00 in0.0 mm 0.00 in0.0 mm
03:20 PM 72.9°F22.7°C 41.3°F5.2°C 32% 3.5 mph ESE5.6 kmh ESE 5.8 mph9.3 kmh 30.09 in1019.0 mb - 0.00 in0.0 mm 0.00 in0.0 mm
03:30 PM 72.8°F22.7°C 41.2°F5.1°C 32% 3.5 mph SE5.6 kmh SE 8.1 mph13.0 kmh 30.09 in1019.0 mb - 0.00 in0.0 mm 0.00 in0.0 mm
03:40 PM 72.4°F22.4°C 40.8°F4.9°C 32% 4.6 mph SE7.4 kmh SE 5.8 mph9.3 kmh 30.09 in1019.0 mb - 0.00 in0.0 mm 0.00 in0.0 mm
03:50 PM 72.0°F22.2°C 41.3°F5.2°C 33% 3.5 mph SE5.6 kmh SE 5.8 mph9.3 kmh 30.09 in1019.0 mb - 0.00 in0.0 mm 0.00 in0.0 mm
04:00 PM 71.1°F21.7°C 40.5°F4.7°C 33% 3.5 mph SSE5.6 kmh SSE 3.5 mph5.6 kmh 30.06 in1017.9 mb - 0.00 in0.0 mm 0.00 in0.0 mm
04:10 PM 70.7°F21.5°C 40.2°F4.6°C 33% 4.6 mph SE7.4 kmh SE 5.8 mph9.3 kmh 30.06 in1017.9 mb - 0.00 in0.0 mm 0.00 in0.0 mm
04:20 PM 71.4°F21.9°C 40.8°F4.9°C 33% 2.3 mph SE3.7 kmh SE 3.5 mph5.6 kmh 30.06 in1017.9 mb - 0.00 in0.0 mm 0.00 in0.0 mm
04:30 PM 71.8°F22.1°C 41.1°F5.1°C 33% 5.8 mph SSE9.3 kmh SSE 9.2 mph14.8 kmh 30.06 in1017.9 mb - 0.00 in0.0 mm 0.00 in0.0 mm
04:40 PM 70.4°F21.3°C 39.9°F4.4°C 33% 5.8 mph SE9.3 kmh SE 8.1 mph13.0 kmh 30.06 in1017.9 mb - 0.00 in0.0 mm 0.00 in0.0 mm
04:50 PM 69.4°F20.8°C 39.8°F4.3°C 34% 4.6 mph SE7.4 kmh SE 6.9 mph11.1 kmh 30.06 in1017.9 mb - 0.00 in0.0 mm 0.00 in0.0 mm
05:00 PM 68.6°F20.3°C 39.1°F3.9°C 34% 4.6 mph SSE7.4 kmh SSE 5.8 mph9.3 kmh 30.06 in1017.9 mb - 0.00 in0.0 mm 0.00 in0.0 mm
05:10 PM 68.0°F20.0°C 39.3°F4.1°C 35% 4.6 mph SSE7.4 kmh SSE 5.8 mph9.3 kmh 30.06 in1017.9 mb - 0.00 in0.0 mm 0.00 in0.0 mm
05:20 PM 67.1°F19.5°C 39.2°F4.0°C 36% 4.6 mph SE7.4 kmh SE 5.8 mph9.3 kmh 30.06 in1017.9 mb - 0.00 in0.0 mm 0.00 in0.0 mm
05:30 PM 66.7°F19.3°C 38.9°F3.8°C 36% 4.6 mph SE7.4 kmh SE 8.1 mph13.0 kmh 30.06 in1017.9 mb - 0.00 in0.0 mm 0.00 in0.0 mm
05:40 PM 65.5°F18.6°C 38.6°F3.7°C 37% 3.5 mph ESE5.6 kmh ESE 5.8 mph9.3 kmh 30.06 in1017.9 mb - 0.00 in0.0 mm 0.00 in0.0 mm
05:50 PM 64.5°F18.1°C 38.3°F3.5°C 38% 4.6 mph SE7.4 kmh SE 5.8 mph9.3 kmh 30.06 in1017.9 mb - 0.00 in0.0 mm 0.00 in0.0 mm
06:00 PM 63.7°F17.6°C 38.2°F3.4°C 39% 4.6 mph ESE7.4 kmh ESE 6.9 mph11.1 kmh 30.06 in1017.9 mb - 0.00 in0.0 mm 0.00 in0.0 mm
06:10 PM 62.8°F17.1°C 37.5°F3.1°C 39% 3.5 mph SE5.6 kmh SE 5.8 mph9.3 kmh 30.06 in1017.9 mb - 0.00 in0.0 mm 0.00 in0.0 mm
06:20 PM 62.3°F16.8°C 37.7°F3.2°C 40% 4.6 mph SE7.4 kmh SE 5.8 mph9.3 kmh 30.06 in1017.9 mb - 0.00 in0.0 mm 0.00 in0.0 mm
06:30 PM 61.7°F16.5°C 37.7°F3.2°C 41% 3.5 mph SE5.6 kmh SE 3.5 mph5.6 kmh 30.06 in1017.9 mb - 0.00 in0.0 mm 0.00 in0.0 mm
06:40 PM 60.9°F16.1°C 37.6°F3.1°C 42% 2.3 mph ESE3.7 kmh ESE 3.5 mph5.6 kmh 30.06 in1017.9 mb - 0.00 in0.0 mm 0.00 in0.0 mm
06:50 PM 60.1°F15.6°C 38.1°F3.4°C 44% 2.3 mph E3.7 kmh E 3.5 mph5.6 kmh 30.06 in1017.9 mb - 0.00 in0.0 mm 0.00 in0.0 mm
07:00 PM 59.2°F15.1°C 37.8°F3.2°C 45% 2.3 mph ESE3.7 kmh ESE 3.5 mph5.6 kmh 30.06 in1017.9 mb - 0.00 in0.0 mm 0.00 in0.0 mm
07:10 PM 58.5°F14.7°C 37.7°F3.2°C 46% 2.3 mph ESE3.7 kmh ESE 3.5 mph5.6 kmh 30.06 in1017.9 mb - 0.00 in0.0 mm 0.00 in0.0 mm
07:20 PM 58.0°F14.4°C 37.9°F3.3°C 47% 3.5 mph SE5.6 kmh SE 3.5 mph5.6 kmh 30.06 in1017.9 mb - 0.00 in0.0 mm 0.00 in0.0 mm
07:30 PM 57.7°F14.3°C 38.2°F3.4°C 48% 2.3 mph ESE3.7 kmh ESE 5.8 mph9.3 kmh 30.06 in1017.9 mb - 0.00 in0.0 mm 0.00 in0.0 mm
07:40 PM 57.6°F14.2°C 38.0°F3.3°C 48% 2.3 mph SE3.7 kmh SE 3.5 mph5.6 kmh 30.06 in1017.9 mb - 0.00 in0.0 mm 0.00 in0.0 mm
07:50 PM 57.1°F13.9°C 38.1°F3.4°C 49% Calm Calm -- 30.06 in1017.9 mb - 0.00 in0.0 mm 0.00 in0.0 mm
08:00 PM 56.6°F13.7°C 38.2°F3.4°C 50% Calm Calm -- 30.06 in1017.9 mb - 0.00 in0.0 mm 0.00 in0.0 mm
08:10 PM 55.9°F13.3°C 38.1°F3.4°C 51% 3.5 mph SSE5.6 kmh SSE 3.5 mph5.6 kmh 30.06 in1017.9 mb - 0.00 in0.0 mm 0.00 in0.0 mm
08:20 PM 55.2°F12.9°C 37.9°F3.3°C 52% 1.2 mph NE1.9 kmh NE 3.5 mph5.6 kmh 30.09 in1019.0 mb - 0.00 in0.0 mm 0.00 in0.0 mm
08:30 PM 54.9°F12.7°C 38.5°F3.6°C 54% Calm Calm -- 30.09 in1019.0 mb - 0.00 in0.0 mm 0.00 in0.0 mm
08:40 PM 54.5°F12.5°C 38.2°F3.4°C 54% Calm Calm -- 30.09 in1019.0 mb - 0.00 in0.0 mm 0.00 in0.0 mm
08:50 PM 53.9°F12.2°C 38.1°F3.4°C 55% Calm Calm -- 30.09 in1019.0 mb - 0.00 in0.0 mm 0.00 in0.0 mm
09:00 PM 53.1°F11.7°C 37.8°F3.2°C 56% Calm Calm -- 30.09 in1019.0 mb - 0.00 in0.0 mm 0.00 in0.0 mm
09:10 PM 52.3°F11.3°C 38.0°F3.3°C 58% Calm Calm 2.3 mph3.7 kmh 30.09 in1019.0 mb - 0.00 in0.0 mm 0.00 in0.0 mm
09:20 PM 51.6°F10.9°C 38.2°F3.4°C 60% Calm Calm -- 30.09 in1019.0 mb - 0.00 in0.0 mm 0.00 in0.0 mm
09:30 PM 50.9°F10.5°C 37.9°F3.3°C 61% Calm Calm -- 30.09 in1019.0 mb - 0.00 in0.0 mm 0.00 in0.0 mm
09:40 PM 50.2°F10.1°C 38.1°F3.4°C 63% Calm Calm -- 30.09 in1019.0 mb - 0.00 in0.0 mm 0.00 in0.0 mm
09:50 PM 49.6°F9.8°C 38.3°F3.5°C 65% Calm Calm -- 30.09 in1019.0 mb - 0.00 in0.0 mm 0.00 in0.0 mm
10:00 PM 49.1°F9.5°C 38.6°F3.7°C 67% Calm Calm -- 30.09 in1019.0 mb - 0.00 in0.0 mm 0.00 in0.0 mm
10:10 PM 48.7°F9.3°C 38.6°F3.7°C 68% Calm Calm -- 30.09 in1019.0 mb - 0.00 in0.0 mm 0.00 in0.0 mm
10:20 PM 48.7°F9.3°C 39.4°F4.1°C 70% Calm Calm -- 30.09 in1019.0 mb - 0.00 in0.0 mm 0.00 in0.0 mm
10:30 PM 48.6°F9.2°C 39.6°F4.2°C 71% Calm Calm -- 30.09 in1019.0 mb - 0.00 in0.0 mm 0.00 in0.0 mm
10:40 PM 48.4°F9.1°C 39.8°F4.3°C 72% Calm Calm -- 30.09 in1019.0 mb - 0.00 in0.0 mm 0.00 in0.0 mm
10:50 PM 48.0°F8.9°C 39.8°F4.3°C 73% 2.3 mph N3.7 kmh N 3.5 mph5.6 kmh 30.09 in1019.0 mb - 0.00 in0.0 mm 0.00 in0.0 mm
11:00 PM 47.5°F8.6°C 39.7°F4.3°C 74% Calm Calm -- 30.06 in1017.9 mb - 0.00 in0.0 mm 0.00 in0.0 mm
11:10 PM 47.3°F8.5°C 39.8°F4.3°C 75% Calm Calm -- 30.06 in1017.9 mb - 0.00 in0.0 mm 0.00 in0.0 mm
11:20 PM 47.3°F8.5°C 39.8°F4.3°C 75% Calm Calm -- 30.06 in1017.9 mb - 0.00 in0.0 mm 0.00 in0.0 mm
11:30 PM 47.1°F8.4°C 39.9°F4.4°C 76% Calm Calm -- 30.06 in1017.9 mb - 0.00 in0.0 mm 0.00 in0.0 mm
11:40 PM 47.1°F8.4°C 40.3°F4.6°C 77% Calm Calm -- 30.06 in1017.9 mb - 0.00 in0.0 mm 0.00 in0.0 mm
11:50 PM 46.8°F8.2°C 39.9°F4.4°C 77% Calm Calm -- 30.06 in1017.9 mb - 0.00 in0.0 mm 0.00 in0.0 mm